sensor_id;sensor_type;location;lat;lon;timestamp;P1;durP1;ratioP1;P2;durP2;ratioP2
4210;SDS011;2119;48.828;12.396;2022-12-07T00:02:01;11.00;;;8.60;;
4210;SDS011;2119;48.828;12.396;2022-12-07T00:07:01;10.52;;;7.07;;
4210;SDS011;2119;48.828;12.396;2022-12-07T00:12:02;11.50;;;8.40;;
4210;SDS011;2119;48.828;12.396;2022-12-07T00:17:02;9.45;;;7.32;;
4210;SDS011;2119;48.828;12.396;2022-12-07T00:22:03;13.75;;;8.10;;
4210;SDS011;2119;48.828;12.396;2022-12-07T00:27:03;11.00;;;7.40;;
4210;SDS011;2119;48.828;12.396;2022-12-07T00:32:03;8.60;;;6.80;;
4210;SDS011;2119;48.828;12.396;2022-12-07T00:37:03;9.55;;;7.65;;
4210;SDS011;2119;48.828;12.396;2022-12-07T00:42:05;8.13;;;6.20;;
4210;SDS011;2119;48.828;12.396;2022-12-07T00:47:05;11.37;;;8.10;;
4210;SDS011;2119;48.828;12.396;2022-12-07T00:52:05;16.30;;;8.65;;
4210;SDS011;2119;48.828;12.396;2022-12-07T00:57:06;13.05;;;8.10;;
4210;SDS011;2119;48.828;12.396;2022-12-07T01:02:09;10.87;;;7.60;;
4210;SDS011;2119;48.828;12.396;2022-12-07T01:07:09;13.00;;;7.80;;
4210;SDS011;2119;48.828;12.396;2022-12-07T01:12:10;11.95;;;7.60;;
4210;SDS011;2119;48.828;12.396;2022-12-07T01:17:11;9.07;;;6.03;;
4210;SDS011;2119;48.828;12.396;2022-12-07T01:22:12;7.60;;;5.93;;
4210;SDS011;2119;48.828;12.396;2022-12-07T01:27:13;8.93;;;6.93;;
4210;SDS011;2119;48.828;12.396;2022-12-07T01:32:13;9.17;;;6.80;;
4210;SDS011;2119;48.828;12.396;2022-12-07T01:37:14;9.90;;;7.13;;
4210;SDS011;2119;48.828;12.396;2022-12-07T01:42:14;7.95;;;6.47;;
4210;SDS011;2119;48.828;12.396;2022-12-07T01:47:14;7.97;;;7.17;;
4210;SDS011;2119;48.828;12.396;2022-12-07T01:57:24;11.50;;;8.23;;
4210;SDS011;2119;48.828;12.396;2022-12-07T02:02:25;14.93;;;9.07;;
4210;SDS011;2119;48.828;12.396;2022-12-07T02:07:26;9.87;;;7.10;;
4210;SDS011;2119;48.828;12.396;2022-12-07T02:12:27;9.20;;;6.50;;
4210;SDS011;2119;48.828;12.396;2022-12-07T02:17:32;11.80;;;8.27;;
4210;SDS011;2119;48.828;12.396;2022-12-07T02:27:56;10.33;;;7.60;;
4210;SDS011;2119;48.828;12.396;2022-12-07T02:38:14;11.07;;;7.82;;
4210;SDS011;2119;48.828;12.396;2022-12-07T02:43:19;12.63;;;8.57;;
4210;SDS011;2119;48.828;12.396;2022-12-07T02:48:23;11.20;;;7.73;;
4210;SDS011;2119;48.828;12.396;2022-12-07T02:53:32;10.50;;;7.80;;
4210;SDS011;2119;48.828;12.396;2022-12-07T02:58:47;9.33;;;6.90;;
4210;SDS011;2119;48.828;12.396;2022-12-07T03:03:53;10.20;;;7.77;;
4210;SDS011;2119;48.828;12.396;2022-12-07T03:14:07;10.50;;;8.07;;
4210;SDS011;2119;48.828;12.396;2022-12-07T03:19:10;11.07;;;7.93;;
4210;SDS011;2119;48.828;12.396;2022-12-07T03:24:12;10.90;;;8.20;;
4210;SDS011;2119;48.828;12.396;2022-12-07T03:29:21;14.00;;;9.33;;
4210;SDS011;2119;48.828;12.396;2022-12-07T03:34:28;10.87;;;8.70;;
4210;SDS011;2119;48.828;12.396;2022-12-07T03:39:31;12.37;;;8.07;;
4210;SDS011;2119;48.828;12.396;2022-12-07T03:44:34;10.60;;;8.23;;
4210;SDS011;2119;48.828;12.396;2022-12-07T03:49:51;12.20;;;9.03;;
4210;SDS011;2119;48.828;12.396;2022-12-07T03:55:00;10.97;;;7.77;;
4210;SDS011;2119;48.828;12.396;2022-12-07T04:00:03;13.80;;;8.87;;
4210;SDS011;2119;48.828;12.396;2022-12-07T04:05:04;13.60;;;9.40;;
4210;SDS011;2119;48.828;12.396;2022-12-07T04:10:04;11.80;;;8.87;;
4210;SDS011;2119;48.828;12.396;2022-12-07T04:15:05;9.90;;;7.77;;
4210;SDS011;2119;48.828;12.396;2022-12-07T04:20:08;11.00;;;8.47;;
4210;SDS011;2119;48.828;12.396;2022-12-07T04:25:08;11.67;;;8.03;;
4210;SDS011;2119;48.828;12.396;2022-12-07T04:30:09;14.37;;;9.60;;
4210;SDS011;2119;48.828;12.396;2022-12-07T04:35:10;16.27;;;9.63;;
4210;SDS011;2119;48.828;12.396;2022-12-07T04:40:10;15.67;;;9.80;;
4210;SDS011;2119;48.828;12.396;2022-12-07T04:45:11;15.50;;;10.27;;
4210;SDS011;2119;48.828;12.396;2022-12-07T04:50:11;12.13;;;8.93;;
4210;SDS011;2119;48.828;12.396;2022-12-07T04:55:11;14.07;;;9.30;;
4210;SDS011;2119;48.828;12.396;2022-12-07T05:00:12;14.60;;;10.05;;
4210;SDS011;2119;48.828;12.396;2022-12-07T05:05:12;12.87;;;10.03;;
4210;SDS011;2119;48.828;12.396;2022-12-07T05:10:13;12.35;;;8.88;;
4210;SDS011;2119;48.828;12.396;2022-12-07T05:15:14;13.50;;;9.57;;
4210;SDS011;2119;48.828;12.396;2022-12-07T05:20:15;14.90;;;9.90;;
4210;SDS011;2119;48.828;12.396;2022-12-07T05:25:15;14.87;;;9.33;;
4210;SDS011;2119;48.828;12.396;2022-12-07T05:30:16;14.00;;;9.60;;
4210;SDS011;2119;48.828;12.396;2022-12-07T05:35:16;14.00;;;9.33;;
4210;SDS011;2119;48.828;12.396;2022-12-07T05:40:17;13.37;;;9.10;;
4210;SDS011;2119;48.828;12.396;2022-12-07T05:45:18;26.20;;;15.00;;
4210;SDS011;2119;48.828;12.396;2022-12-07T05:50:19;20.20;;;13.13;;
4210;SDS011;2119;48.828;12.396;2022-12-07T05:55:19;15.70;;;10.55;;
4210;SDS011;2119;48.828;12.396;2022-12-07T06:00:19;14.93;;;10.33;;
4210;SDS011;2119;48.828;12.396;2022-12-07T06:05:20;19.07;;;12.10;;
4210;SDS011;2119;48.828;12.396;2022-12-07T06:10:20;17.37;;;11.87;;
4210;SDS011;2119;48.828;12.396;2022-12-07T06:15:20;21.98;;;12.80;;
4210;SDS011;2119;48.828;12.396;2022-12-07T06:20:23;17.60;;;12.37;;
4210;SDS011;2119;48.828;12.396;2022-12-07T06:25:26;17.20;;;11.23;;
4210;SDS011;2119;48.828;12.396;2022-12-07T06:30:27;16.50;;;11.70;;
4210;SDS011;2119;48.828;12.396;2022-12-07T06:40:32;21.70;;;12.67;;
4210;SDS011;2119;48.828;12.396;2022-12-07T06:45:32;20.17;;;12.13;;
4210;SDS011;2119;48.828;12.396;2022-12-07T06:50:32;18.38;;;10.43;;
4210;SDS011;2119;48.828;12.396;2022-12-07T06:55:32;16.90;;;11.00;;
4210;SDS011;2119;48.828;12.396;2022-12-07T07:00:35;17.33;;;10.65;;
4210;SDS011;2119;48.828;12.396;2022-12-07T07:05:35;24.13;;;14.33;;
4210;SDS011;2119;48.828;12.396;2022-12-07T07:10:35;28.63;;;17.17;;
4210;SDS011;2119;48.828;12.396;2022-12-07T07:15:36;23.13;;;13.93;;
4210;SDS011;2119;48.828;12.396;2022-12-07T07:20:38;35.37;;;18.90;;
4210;SDS011;2119;48.828;12.396;2022-12-07T07:25:39;29.27;;;17.90;;
4210;SDS011;2119;48.828;12.396;2022-12-07T07:30:40;26.00;;;15.63;;
4210;SDS011;2119;48.828;12.396;2022-12-07T07:35:41;22.10;;;13.80;;
4210;SDS011;2119;48.828;12.396;2022-12-07T07:40:41;23.33;;;13.80;;
4210;SDS011;2119;48.828;12.396;2022-12-07T07:45:41;26.20;;;14.50;;
4210;SDS011;2119;48.828;12.396;2022-12-07T07:50:43;25.17;;;15.70;;
4210;SDS011;2119;48.828;12.396;2022-12-07T07:55:50;22.83;;;13.88;;
4210;SDS011;2119;48.828;12.396;2022-12-07T08:00:50;24.00;;;15.93;;
4210;SDS011;2119;48.828;12.396;2022-12-07T08:05:51;25.20;;;15.77;;
4210;SDS011;2119;48.828;12.396;2022-12-07T08:10:52;25.13;;;15.67;;
4210;SDS011;2119;48.828;12.396;2022-12-07T08:15:52;35.83;;;20.60;;
4210;SDS011;2119;48.828;12.396;2022-12-07T08:20:58;25.30;;;15.60;;
4210;SDS011;2119;48.828;12.396;2022-12-07T08:26:03;23.90;;;15.60;;
4210;SDS011;2119;48.828;12.396;2022-12-07T08:31:05;37.73;;;22.10;;
4210;SDS011;2119;48.828;12.396;2022-12-07T08:36:07;29.87;;;16.03;;
4210;SDS011;2119;48.828;12.396;2022-12-07T08:41:07;36.50;;;19.17;;
4210;SDS011;2119;48.828;12.396;2022-12-07T08:51:40;25.73;;;17.93;;
4210;SDS011;2119;48.828;12.396;2022-12-07T08:56:43;24.57;;;13.73;;
4210;SDS011;2119;48.828;12.396;2022-12-07T09:01:44;27.90;;;13.90;;
4210;SDS011;2119;48.828;12.396;2022-12-07T09:06:45;25.13;;;16.63;;
4210;SDS011;2119;48.828;12.396;2022-12-07T09:11:46;34.47;;;17.20;;
4210;SDS011;2119;48.828;12.396;2022-12-07T09:16:46;22.38;;;14.15;;
4210;SDS011;2119;48.828;12.396;2022-12-07T09:21:47;31.97;;;17.53;;
4210;SDS011;2119;48.828;12.396;2022-12-07T09:26:48;21.42;;;14.13;;
4210;SDS011;2119;48.828;12.396;2022-12-07T09:31:51;17.30;;;11.20;;
4210;SDS011;2119;48.828;12.396;2022-12-07T09:36:53;16.93;;;10.40;;
4210;SDS011;2119;48.828;12.396;2022-12-07T09:41:53;17.10;;;10.57;;
4210;SDS011;2119;48.828;12.396;2022-12-07T09:46:53;14.25;;;10.20;;
4210;SDS011;2119;48.828;12.396;2022-12-07T09:52:02;23.67;;;15.60;;
4210;SDS011;2119;48.828;12.396;2022-12-07T09:57:03;15.90;;;10.20;;
4210;SDS011;2119;48.828;12.396;2022-12-07T10:07:33;14.40;;;9.27;;
4210;SDS011;2119;48.828;12.396;2022-12-07T10:12:56;15.45;;;9.70;;
4210;SDS011;2119;48.828;12.396;2022-12-07T10:17:54;14.83;;;10.50;;
4210;SDS011;2119;48.828;12.396;2022-12-07T10:22:56;13.30;;;9.50;;
4210;SDS011;2119;48.828;12.396;2022-12-07T10:33:36;15.97;;;10.67;;
4210;SDS011;2119;48.828;12.396;2022-12-07T10:38:36;12.20;;;8.20;;
4210;SDS011;2119;48.828;12.396;2022-12-07T10:43:54;12.27;;;8.43;;
4210;SDS011;2119;48.828;12.396;2022-12-07T10:54:00;12.07;;;7.93;;
4210;SDS011;2119;48.828;12.396;2022-12-07T10:59:12;12.97;;;8.37;;
4210;SDS011;2119;48.828;12.396;2022-12-07T11:04:21;12.07;;;8.33;;
4210;SDS011;2119;48.828;12.396;2022-12-07T11:09:35;13.57;;;8.87;;
4210;SDS011;2119;48.828;12.396;2022-12-07T11:24:48;13.70;;;8.77;;
4210;SDS011;2119;48.828;12.396;2022-12-07T12:01:01;11.80;;;7.90;;
4210;SDS011;2119;48.828;12.396;2022-12-07T12:06:08;13.03;;;8.67;;
4210;SDS011;2119;48.828;12.396;2022-12-07T12:16:25;11.60;;;8.20;;
4210;SDS011;2119;48.828;12.396;2022-12-07T12:21:29;12.20;;;8.10;;
4210;SDS011;2119;48.828;12.396;2022-12-07T12:26:32;11.20;;;7.30;;
4210;SDS011;2119;48.828;12.396;2022-12-07T12:31:35;10.67;;;6.73;;
4210;SDS011;2119;48.828;12.396;2022-12-07T12:46:47;13.17;;;8.13;;
4210;SDS011;2119;48.828;12.396;2022-12-07T12:51:49;15.97;;;9.60;;
4210;SDS011;2119;48.828;12.396;2022-12-07T13:01:54;13.32;;;8.73;;
4210;SDS011;2119;48.828;12.396;2022-12-07T13:06:55;9.93;;;7.37;;
4210;SDS011;2119;48.828;12.396;2022-12-07T13:11:56;14.77;;;9.20;;
4210;SDS011;2119;48.828;12.396;2022-12-07T13:16:57;10.53;;;7.77;;
4210;SDS011;2119;48.828;12.396;2022-12-07T13:21:58;11.93;;;8.27;;
4210;SDS011;2119;48.828;12.396;2022-12-07T13:26:59;11.02;;;7.43;;
4210;SDS011;2119;48.828;12.396;2022-12-07T13:31:59;10.70;;;7.43;;
4210;SDS011;2119;48.828;12.396;2022-12-07T13:37:10;9.83;;;6.57;;
4210;SDS011;2119;48.828;12.396;2022-12-07T13:42:30;9.00;;;5.80;;
4210;SDS011;2119;48.828;12.396;2022-12-07T13:52:33;11.43;;;7.80;;
4210;SDS011;2119;48.828;12.396;2022-12-07T13:57:43;12.17;;;8.40;;
4210;SDS011;2119;48.828;12.396;2022-12-07T14:02:56;9.40;;;7.77;;
4210;SDS011;2119;48.828;12.396;2022-12-07T14:12:57;13.88;;;9.38;;
4210;SDS011;2119;48.828;12.396;2022-12-07T14:17:58;15.50;;;9.70;;
4210;SDS011;2119;48.828;12.396;2022-12-07T14:23:03;12.70;;;9.83;;
4210;SDS011;2119;48.828;12.396;2022-12-07T14:28:09;27.43;;;15.57;;
4210;SDS011;2119;48.828;12.396;2022-12-07T14:33:24;22.53;;;12.47;;
4210;SDS011;2119;48.828;12.396;2022-12-07T14:38:25;24.33;;;12.63;;
4210;SDS011;2119;48.828;12.396;2022-12-07T14:43:26;20.03;;;12.80;;
4210;SDS011;2119;48.828;12.396;2022-12-07T14:48:26;17.85;;;9.35;;
4210;SDS011;2119;48.828;12.396;2022-12-07T14:53:29;22.17;;;11.30;;
4210;SDS011;2119;48.828;12.396;2022-12-07T14:58:30;21.83;;;12.43;;
4210;SDS011;2119;48.828;12.396;2022-12-07T15:03:30;30.52;;;15.95;;
4210;SDS011;2119;48.828;12.396;2022-12-07T15:08:30;26.37;;;13.20;;
4210;SDS011;2119;48.828;12.396;2022-12-07T15:13:30;31.70;;;15.85;;
4210;SDS011;2119;48.828;12.396;2022-12-07T15:18:49;28.33;;;13.37;;
4210;SDS011;2119;48.828;12.396;2022-12-07T15:23:51;26.07;;;15.23;;
4210;SDS011;2119;48.828;12.396;2022-12-07T15:28:52;21.60;;;12.30;;
4210;SDS011;2119;48.828;12.396;2022-12-07T15:33:53;23.80;;;14.30;;
4210;SDS011;2119;48.828;12.396;2022-12-07T15:38:54;29.88;;;17.58;;
4210;SDS011;2119;48.828;12.396;2022-12-07T15:43:55;27.00;;;15.63;;
4210;SDS011;2119;48.828;12.396;2022-12-07T15:49:15;24.03;;;15.83;;
4210;SDS011;2119;48.828;12.396;2022-12-07T15:54:18;19.60;;;13.10;;
4210;SDS011;2119;48.828;12.396;2022-12-07T15:59:20;21.37;;;13.53;;
4210;SDS011;2119;48.828;12.396;2022-12-07T16:04:20;23.00;;;14.07;;
4210;SDS011;2119;48.828;12.396;2022-12-07T16:09:20;22.67;;;14.15;;
4210;SDS011;2119;48.828;12.396;2022-12-07T16:14:21;21.40;;;12.77;;
4210;SDS011;2119;48.828;12.396;2022-12-07T16:19:21;23.42;;;12.27;;
4210;SDS011;2119;48.828;12.396;2022-12-07T16:24:21;19.20;;;12.02;;
4210;SDS011;2119;48.828;12.396;2022-12-07T16:29:22;21.87;;;13.27;;
4210;SDS011;2119;48.828;12.396;2022-12-07T16:34:22;18.17;;;12.13;;
4210;SDS011;2119;48.828;12.396;2022-12-07T16:39:24;20.10;;;13.57;;
4210;SDS011;2119;48.828;12.396;2022-12-07T16:44:24;20.43;;;12.40;;
4210;SDS011;2119;48.828;12.396;2022-12-07T16:49:25;21.93;;;13.17;;
4210;SDS011;2119;48.828;12.396;2022-12-07T16:54:25;22.63;;;14.23;;
4210;SDS011;2119;48.828;12.396;2022-12-07T16:59:25;21.58;;;14.00;;
4210;SDS011;2119;48.828;12.396;2022-12-07T17:04:29;29.35;;;17.50;;
4210;SDS011;2119;48.828;12.396;2022-12-07T17:09:29;25.63;;;15.63;;
4210;SDS011;2119;48.828;12.396;2022-12-07T17:14:31;24.98;;;14.50;;
4210;SDS011;2119;48.828;12.396;2022-12-07T17:19:50;17.50;;;12.27;;
4210;SDS011;2119;48.828;12.396;2022-12-07T17:24:50;25.45;;;15.45;;
4210;SDS011;2119;48.828;12.396;2022-12-07T17:29:51;21.73;;;14.02;;
4210;SDS011;2119;48.828;12.396;2022-12-07T17:34:52;22.30;;;13.80;;
4210;SDS011;2119;48.828;12.396;2022-12-07T17:39:53;22.83;;;14.07;;
4210;SDS011;2119;48.828;12.396;2022-12-07T17:44:57;25.13;;;15.60;;
4210;SDS011;2119;48.828;12.396;2022-12-07T17:49:57;20.73;;;12.93;;
4210;SDS011;2119;48.828;12.396;2022-12-07T17:54:57;25.80;;;14.45;;
4210;SDS011;2119;48.828;12.396;2022-12-07T18:00:00;22.38;;;12.10;;
4210;SDS011;2119;48.828;12.396;2022-12-07T18:05:00;21.37;;;11.83;;
4210;SDS011;2119;48.828;12.396;2022-12-07T18:10:02;22.65;;;12.70;;
4210;SDS011;2119;48.828;12.396;2022-12-07T18:15:04;25.57;;;14.63;;
4210;SDS011;2119;48.828;12.396;2022-12-07T18:20:05;29.97;;;16.10;;
4210;SDS011;2119;48.828;12.396;2022-12-07T18:25:06;27.10;;;15.30;;
4210;SDS011;2119;48.828;12.396;2022-12-07T18:30:06;32.50;;;18.53;;
4210;SDS011;2119;48.828;12.396;2022-12-07T18:35:08;32.60;;;19.00;;
4210;SDS011;2119;48.828;12.396;2022-12-07T18:40:08;27.17;;;18.27;;
4210;SDS011;2119;48.828;12.396;2022-12-07T18:45:09;21.80;;;14.70;;
4210;SDS011;2119;48.828;12.396;2022-12-07T18:50:10;19.93;;;13.60;;
4210;SDS011;2119;48.828;12.396;2022-12-07T18:55:10;21.63;;;13.57;;
4210;SDS011;2119;48.828;12.396;2022-12-07T19:00:12;18.98;;;12.90;;
4210;SDS011;2119;48.828;12.396;2022-12-07T19:05:12;19.00;;;12.47;;
4210;SDS011;2119;48.828;12.396;2022-12-07T19:10:14;22.07;;;14.07;;
4210;SDS011;2119;48.828;12.396;2022-12-07T19:15:16;21.93;;;13.83;;
4210;SDS011;2119;48.828;12.396;2022-12-07T19:20:18;26.77;;;16.23;;
4210;SDS011;2119;48.828;12.396;2022-12-07T19:25:20;24.93;;;16.07;;
4210;SDS011;2119;48.828;12.396;2022-12-07T19:30:23;22.80;;;15.10;;
4210;SDS011;2119;48.828;12.396;2022-12-07T19:35:25;25.40;;;15.10;;
4210;SDS011;2119;48.828;12.396;2022-12-07T19:40:25;22.70;;;13.33;;
4210;SDS011;2119;48.828;12.396;2022-12-07T19:45:25;25.58;;;13.73;;
4210;SDS011;2119;48.828;12.396;2022-12-07T19:50:28;19.43;;;12.90;;
4210;SDS011;2119;48.828;12.396;2022-12-07T19:55:29;20.00;;;12.27;;
4210;SDS011;2119;48.828;12.396;2022-12-07T20:00:31;20.25;;;11.55;;
4210;SDS011;2119;48.828;12.396;2022-12-07T20:05:32;19.73;;;11.97;;
4210;SDS011;2119;48.828;12.396;2022-12-07T20:10:33;23.37;;;14.00;;
4210;SDS011;2119;48.828;12.396;2022-12-07T20:15:39;20.20;;;12.70;;
4210;SDS011;2119;48.828;12.396;2022-12-07T20:20:40;20.17;;;13.53;;
4210;SDS011;2119;48.828;12.396;2022-12-07T20:25:40;25.77;;;15.13;;
4210;SDS011;2119;48.828;12.396;2022-12-07T20:30:52;26.57;;;15.93;;
4210;SDS011;2119;48.828;12.396;2022-12-07T20:35:58;15.13;;;10.60;;
4210;SDS011;2119;48.828;12.396;2022-12-07T20:40:59;20.80;;;11.43;;
4210;SDS011;2119;48.828;12.396;2022-12-07T20:46:00;18.77;;;10.70;;
4210;SDS011;2119;48.828;12.396;2022-12-07T20:51:04;14.35;;;10.02;;
4210;SDS011;2119;48.828;12.396;2022-12-07T20:56:05;21.60;;;12.27;;
4210;SDS011;2119;48.828;12.396;2022-12-07T21:01:06;23.63;;;13.00;;
4210;SDS011;2119;48.828;12.396;2022-12-07T21:06:07;18.30;;;13.47;;
4210;SDS011;2119;48.828;12.396;2022-12-07T21:11:07;22.83;;;12.97;;
4210;SDS011;2119;48.828;12.396;2022-12-07T21:16:09;18.97;;;11.10;;
4210;SDS011;2119;48.828;12.396;2022-12-07T21:21:09;18.87;;;11.33;;
4210;SDS011;2119;48.828;12.396;2022-12-07T21:26:10;17.80;;;10.73;;
4210;SDS011;2119;48.828;12.396;2022-12-07T21:31:11;17.90;;;11.60;;
4210;SDS011;2119;48.828;12.396;2022-12-07T21:36:12;38.90;;;16.90;;
4210;SDS011;2119;48.828;12.396;2022-12-07T21:41:19;25.87;;;15.80;;
4210;SDS011;2119;48.828;12.396;2022-12-07T21:46:20;23.10;;;15.10;;
4210;SDS011;2119;48.828;12.396;2022-12-07T21:51:21;24.00;;;14.50;;
4210;SDS011;2119;48.828;12.396;2022-12-07T21:56:32;19.47;;;12.90;;
4210;SDS011;2119;48.828;12.396;2022-12-07T22:01:34;23.70;;;13.77;;
4210;SDS011;2119;48.828;12.396;2022-12-07T22:06:37;18.00;;;12.00;;
4210;SDS011;2119;48.828;12.396;2022-12-07T22:11:37;18.67;;;12.13;;
4210;SDS011;2119;48.828;12.396;2022-12-07T22:16:37;19.77;;;12.95;;
4210;SDS011;2119;48.828;12.396;2022-12-07T22:21:38;20.90;;;12.97;;
4210;SDS011;2119;48.828;12.396;2022-12-07T22:26:39;19.00;;;12.80;;
4210;SDS011;2119;48.828;12.396;2022-12-07T22:31:41;17.50;;;11.10;;
4210;SDS011;2119;48.828;12.396;2022-12-07T22:36:42;19.73;;;13.40;;
4210;SDS011;2119;48.828;12.396;2022-12-07T22:41:47;21.07;;;12.50;;
4210;SDS011;2119;48.828;12.396;2022-12-07T22:46:47;20.57;;;12.77;;
4210;SDS011;2119;48.828;12.396;2022-12-07T22:51:48;22.92;;;13.57;;
4210;SDS011;2119;48.828;12.396;2022-12-07T22:56:48;20.00;;;13.10;;
4210;SDS011;2119;48.828;12.396;2022-12-07T23:01:51;23.35;;;12.90;;
4210;SDS011;2119;48.828;12.396;2022-12-07T23:06:52;21.87;;;13.90;;
4210;SDS011;2119;48.828;12.396;2022-12-07T23:11:54;22.65;;;13.18;;
4210;SDS011;2119;48.828;12.396;2022-12-07T23:17:13;21.93;;;13.27;;
4210;SDS011;2119;48.828;12.396;2022-12-07T23:22:13;20.30;;;12.93;;
4210;SDS011;2119;48.828;12.396;2022-12-07T23:27:13;20.02;;;12.40;;
4210;SDS011;2119;48.828;12.396;2022-12-07T23:32:14;21.98;;;12.45;;
4210;SDS011;2119;48.828;12.396;2022-12-07T23:37:15;24.73;;;13.18;;
4210;SDS011;2119;48.828;12.396;2022-12-07T23:42:16;14.70;;;10.20;;
4210;SDS011;2119;48.828;12.396;2022-12-07T23:47:16;14.17;;;9.87;;
4210;SDS011;2119;48.828;12.396;2022-12-07T23:57:27;13.87;;;9.50;;
